Film, Sweden

11:53 PM CET on February 10, 2016 (GMT +0100)
Fornbro | | Change Station
CLOSE
Current Station
Personal Weather Station
Location: Fornbro, UPPSALA COUNTY
Elevation: 102 ft
Nearby Weather Stations

Elev 102 ft 60.06 °N, 18.29 °E | Updated 3 minutes ago

Drizzle
Drizzle
33.8 °F
Feels Like 34 °F
N
0.0
Wind Variable Wind from North
Gusts 0.0 mph

Today
High -- | Low -- °F
--% Chance of Precip.
Yesterday
High -- | Low -- °F
Precip. -- in
Pressure 29.09 in
Visibility 1.2 miles
Clouds Overcast 300 ft
Windchill 34 °F
Dew Point 32 °F
Humidity 94%
Rainfall 0.29 in
Snow Depth Not available.
7:42 AM 4:23 PM
Waxing Crescent, 7% visible
METAR ESSA 102220Z 29004KT 230V320 2000 DZ OVC003 02/02 Q0985 R01L/29//95 R08/29//95 R01R/29//95 NOSIG
Pressure 29.09 in
Visibility 1.2 miles
Clouds Overcast 300 ft
Windchill 34 °F
Dew Point 32 °F
Humidity 94%
Rainfall 0.29 in
Snow Depth Not available.
7:42 AM 4:23 PM
Waxing Crescent, 7% visible
METAR ESSA 102220Z 29004KT 230V320 2000 DZ OVC003 02/02 Q0985 R01L/29//95 R08/29//95 R01R/29//95 NOSIG

10-Day Weather Forecast

Almanac

Astronomy

Feb. 10, 2016 Rise Set
Actual Time
Civil Twilight
Nautical Twilight
Astronomical Twilight
Moon
Length of Visible Light
Length of Day
Tomorrow will be .
, % of the Moon is Illuminated

Today's Extremes

Country Highs Country Lows

Community

WunderPhotos

Upload Photos

1,891,940 photos uploaded!

WunderBlog® & News

Nearby

Air Quality

  Air Quality AQ Index Pollutant
Not available.

Snow Depth

Station Depth Elevation

Earthquake Activity

City Distance Mag. Time & Date
Minimum magnitude displayed is 2.5.

Coastal Water Temperatures

Place Temperature

Stations

Nearby Weather Stations

Station Location Temp. Windchill Dew Point Humidity Wind Precip. Elev Updated Type